x

Half Moon Bay - 24nm Ssw Of San Francisco, Ca (46012) Wave Buoy

2:50pm - Mon 20th Feb 2017 All times are PST. -8 hours from GMT.

  • Sig Wave height 10.5ft
  • Swell Direction
  • Peak Period 12s
  • Average Period 8s
  • Wind
    20mph, 27mph gusts
  • Sea Temp 55°f
  • Air Temp 54°f
  • Sea Pressure 1012mb
  • Half Moon Bay - 24nm Ssw Of San Francisco, Ca
  • Half Moon Bay - 24nm Ssw Of San Francisco, Ca

More Historic Weather Station data

Upgrade to MSW Pro to gain access to the past 30 days of data for over 8000 Wavebouys and Weather Stations around the globe.

Join Pro

Comparision Forecast

View Surf forecast
   
Mon 02/20 2:50pm 10.5ft 12s 8s 20 27 mph 1012mb 55f 54f
1:50pm 11ft 16s 8s 25 31 mph 1012.6mb 55f 55f
12:50pm 13ft 15s 9s 22 29 mph 1013.6mb 55f 55f
11:50am 14ft 16s 9s 20 25 mph 1013.7mb 55f 55f
10:50am 14ft 13s 9s 20 27 mph 1014.7mb 55f 56f
9:50am 13.5ft 15s 9s 18 25 mph 1014.4mb 55f 56f
8:50am 13.5ft 16s 9s 13 18 mph 1014.1mb 55f 57f
7:50am 15ft 15s 9s 11 13 mph 1012.8mb 55f 57f
6:50am 13.5ft 16s 9s 13 18 mph 1012.1mb 55f 58f
5:50am 13.5ft 16s 9s 11 13 mph 1011.1mb 55f 57f
4:50am 13ft 16s 8s 13 18 mph 1010.4mb 55f 57f
3:50am 13ft 17s 8s 20 25 mph 1010.4mb 55f 57f
2:50am 12ft 17s 8s 20 25 mph 1010mb 55f 56f
1:50am 12ft 17s 8s 27 31 mph 1010.2mb 55f 56f
12:50am 12ft 8s 7s 25 29 mph 1010.2mb 55f 55f
Sun 02/19 11:50pm 12ft 8s 7s 31 38 mph 1010.6mb 55f 54f
10:50pm 12ft 12s 7s 31 38 mph 1010.5mb 55f 54f
9:50pm 12.5ft 8s 7s 29 36 mph 1010.9mb 55f 54f
8:50pm 13ft 8s 7s 31 38 mph 1010.6mb 55f 54f
7:50pm 13ft 8s 7s 29 36 mph 1010.6mb 55f 54f
6:50pm 12ft 8s 7s 31 38 mph 1009.3mb 55f 54f
5:50pm 12ft 8s 7s 29 36 mph 1008.7mb 55f 54f
4:50pm 12ft 7s 6s 29 38 mph 1008.3mb 55f 54f
3:50pm 12ft 7s 7s 31 38 mph 1007.8mb 55f 53f
2:50pm 12ft 7s 7s 34 38 mph 1007.8mb 55f 53f
1:50pm 10ft 6s 6s 34 40 mph 1007.7mb 55f 53f
12:50pm 9.5ft 11s 7s 34 40 mph 1007.9mb 55f 53f
11:50am 9ft 14s 7s 29 38 mph 1008.7mb 55f 54f
10:50am 9ft 12s 7s 29 34 mph 1009.4mb 55f 53f
9:50am 8ft 11s 6s 27 31 mph 1009.4mb 55f 53f
8:50am 8.5ft 11s 7s 25 29 mph 1009mb 55f 54f
7:50am 9ft 12s 7s 25 31 mph 1008.8mb 55f 54f
6:50am 8ft 12s 8s 20 27 mph 1008.7mb 55f 53f
5:50am 8.5ft 11s 8s 18 22 mph 1008.7mb 55f 53f
4:50am 9ft 10s 9s 16 18 mph 1008.7mb 55f 53f
3:50am 9ft 11s 9s 13 16 mph 1008.8mb 55f 53f
2:50am 9.5ft 12s 8s 11 13 mph 1009mb 55f 53f
1:50am 9.5ft 11s 8s 11 13 mph 1009.4mb 55f 53f
12:50am 10ft 13s 8s 9 11 mph 1008.8mb 55f 53f
Sat 02/18 11:50pm 11ft 13s 9s 16 18 mph 1009.2mb 55f 53f
10:50pm 10ft 11s 8s 13 16 mph 1008.9mb 55f 53f
9:50pm 11.5ft 13s 8s 13 16 mph 1008.6mb 55f 53f
8:50pm 11ft 12s 8s 13 18 mph 1008.1mb 55f 53f
7:50pm 13ft 13s 8s 18 22 mph 1007.4mb 55f 53f
6:50pm 12ft 11s 8s 18 22 mph 1006.8mb 55f 53f
5:50pm 13ft 12s 8s 20 27 mph 1005.5mb 55f 53f
4:50pm 13.5ft 12s 8s 20 27 mph 1005.3mb 55f 53f
3:50pm 13ft 11s 8s 22 27 mph 1004.8mb 55f 53f
2:50pm 14ft 12s 8s 25 29 mph 1004.4mb 55f 53f
1:50pm 14ft 11s 8s 22 27 mph 1003.5mb 55f 53f
12:50pm 16ft 11s 8s 25 31 mph 1003.7mb 55f 53f
11:50am 15ft 11s 8s 29 36 mph 1003.5mb 55f 53f
10:50am 16.5ft 11s 8s 31 38 mph 1003.2mb 55f 53f
9:50am 16.5ft 13s 8s 31 38 mph 1002.1mb 55f 53f
8:50am 16ft 12s 8s 31 38 mph 1001.2mb 55f 54f
7:50am 17.5ft 11s 8s 34 43 mph 999.8mb 55f 53f
6:50am 18ft 9s 8s 36 45 mph 998.7mb 55f 53f
5:50am 16.5ft 11s 8s 34 40 mph 997.7mb 55f 53f
4:50am 15ft 9s 8s 31 38 mph 996.5mb 55f 52f
3:50am 14.5ft 9s 8s 31 40 mph 995.8mb 55f 54f
2:50am 13.5ft 9s 8s 31 38 mph 994.7mb 56f 54f
1:50am 13.5ft 9s 8s 29 36 mph 994mb 56f 53f
12:50am 13ft 9s 8s 25 31 mph 993.2mb 56f 53f
Fri 02/17 11:50pm 12ft 9s 9s 9 11 mph 992.1mb 56f 54f
10:50pm 10ft 9s 8s 11 13 mph 990.3mb 56f 55f
9:50pm 10ft 9s 8s 13 18 mph 989.5mb 56f 55f
8:50pm 10.5ft 10s 9s 20 25 mph 988.7mb 56f 56f
7:50pm 12ft 10s 9s 18 20 mph 988.2mb 56f 56f
6:50pm 10.5ft 10s 9s 13 16 mph 987mb 56f 56f
5:50pm 10.5ft 10s 8s 11 13 mph 987mb 56f 56f
4:50pm 11.5ft 10s 8s 11 16 mph 986.1mb 56f 56f
3:50pm 12.5ft 10s 8s 13 16 mph 985.8mb 56f 56f
2:50pm 13ft 10s 8s 18 22 mph 985.8mb 56f 56f
1:50pm 13ft 10s 8s 13 18 mph 986mb 56f 56f
12:50pm 17ft 10s 9s 16 18 mph 986.4mb 56f 56f
11:50am 19ft 11s 8s 11 16 mph 986.3mb 56f 56f
10:50am 20ft 10s 8s 38 45 mph 985.7mb 56f 56f
9:50am 16.5ft 10s 8s 36 47 mph 986.2mb 56f 55f
8:50am 13.5ft 8s 7s 40 51 mph 987.1mb 56f 55f
7:50am 11ft 15s 8s 31 47 mph 989mb 56f 55f
6:50am 11ft 13s 7s 18 25 mph 991.3mb 56f 55f
5:50am 11ft 13s 8s 11 18 mph 993.7mb 56f 54f
4:50am 11ft 16s 8s 18 22 mph 995.6mb 56f 55f
3:50am 11.5ft 13s 8s 25 34 mph 998.1mb 56f 55f
2:50am 12ft 16s 9s 22 29 mph 1000.5mb 56f 56f
1:50am 12ft 16s 9s 18 27 mph 1002.4mb 56f 56f
12:50am 12.5ft 13s 10s 18 25 mph 1003.2mb 56f 55f
Thu 02/16 11:50pm 12ft 12s 10s 20 25 mph 1006.3mb 56f 55f